sensor_id;sensor_type;location;lat;lon;timestamp;temperature;humidity
22674;DHT22;11504;43.334;21.918;2022-07-06T00:03:12;23.3;100.0
22674;DHT22;11504;43.334;21.918;2022-07-06T00:07:48;23.3;100.0
22674;DHT22;11504;43.334;21.918;2022-07-06T00:12:24;23.2;100.0
22674;DHT22;11504;43.334;21.918;2022-07-06T00:17:00;23.2;100.0
22674;DHT22;11504;43.334;21.918;2022-07-06T00:21:38;23.2;100.0
22674;DHT22;11504;43.334;21.918;2022-07-06T00:26:15;23.2;100.0
22674;DHT22;11504;43.334;21.918;2022-07-06T00:30:52;23.2;100.0
22674;DHT22;11504;43.334;21.918;2022-07-06T00:35:29;23.2;100.0
22674;DHT22;11504;43.334;21.918;2022-07-06T00:40:07;23.1;100.0
22674;DHT22;11504;43.334;21.918;2022-07-06T00:44:46;23.1;100.0
22674;DHT22;11504;43.334;21.918;2022-07-06T00:49:22;23.0;100.0
22674;DHT22;11504;43.334;21.918;2022-07-06T00:54:02;23.0;100.0
22674;DHT22;11504;43.334;21.918;2022-07-06T00:58:41;22.8;100.0
22674;DHT22;11504;43.334;21.918;2022-07-06T01:03:20;22.8;100.0
22674;DHT22;11504;43.334;21.918;2022-07-06T01:07:57;22.8;100.0
22674;DHT22;11504;43.334;21.918;2022-07-06T01:12:35;22.8;100.0
22674;DHT22;11504;43.334;21.918;2022-07-06T01:17:20;22.8;100.0
22674;DHT22;11504;43.334;21.918;2022-07-06T01:22:00;22.7;100.0
22674;DHT22;11504;43.334;21.918;2022-07-06T01:26:38;22.7;100.0
22674;DHT22;11504;43.334;21.918;2022-07-06T01:31:17;22.7;100.0
22674;DHT22;11504;43.334;21.918;2022-07-06T01:36:01;22.7;100.0
22674;DHT22;11504;43.334;21.918;2022-07-06T01:40:39;22.7;100.0
22674;DHT22;11504;43.334;21.918;2022-07-06T01:45:16;22.7;100.0
22674;DHT22;11504;43.334;21.918;2022-07-06T01:49:52;22.7;100.0
22674;DHT22;11504;43.334;21.918;2022-07-06T01:54:35;22.7;100.0
22674;DHT22;11504;43.334;21.918;2022-07-06T01:59:12;22.7;100.0
22674;DHT22;11504;43.334;21.918;2022-07-06T02:03:49;22.7;100.0
22674;DHT22;11504;43.334;21.918;2022-07-06T02:08:26;22.7;100.0
22674;DHT22;11504;43.334;21.918;2022-07-06T02:13:02;22.7;100.0
22674;DHT22;11504;43.334;21.918;2022-07-06T02:17:40;22.7;100.0
22674;DHT22;11504;43.334;21.918;2022-07-06T02:22:16;22.7;100.0
22674;DHT22;11504;43.334;21.918;2022-07-06T02:26:53;22.7;100.0
22674;DHT22;11504;43.334;21.918;2022-07-06T02:31:29;22.7;100.0
22674;DHT22;11504;43.334;21.918;2022-07-06T02:36:06;22.7;100.0
22674;DHT22;11504;43.334;21.918;2022-07-06T02:40:43;22.7;100.0
22674;DHT22;11504;43.334;21.918;2022-07-06T02:45:19;22.7;100.0
22674;DHT22;11504;43.334;21.918;2022-07-06T02:49:55;22.7;100.0
22674;DHT22;11504;43.334;21.918;2022-07-06T02:54:32;22.7;100.0
22674;DHT22;11504;43.334;21.918;2022-07-06T02:59:08;22.7;100.0
22674;DHT22;11504;43.334;21.918;2022-07-06T03:03:45;22.7;100.0
22674;DHT22;11504;43.334;21.918;2022-07-06T03:08:21;22.7;100.0
22674;DHT22;11504;43.334;21.918;2022-07-06T03:12:57;22.7;100.0
22674;DHT22;11504;43.334;21.918;2022-07-06T03:17:33;22.7;100.0
22674;DHT22;11504;43.334;21.918;2022-07-06T03:22:09;22.7;100.0
22674;DHT22;11504;43.334;21.918;2022-07-06T03:26:46;22.7;100.0
22674;DHT22;11504;43.334;21.918;2022-07-06T03:31:22;22.7;100.0
22674;DHT22;11504;43.334;21.918;2022-07-06T03:35:59;22.7;100.0
22674;DHT22;11504;43.334;21.918;2022-07-06T03:40:36;22.7;100.0
22674;DHT22;11504;43.334;21.918;2022-07-06T03:45:13;22.7;100.0
22674;DHT22;11504;43.334;21.918;2022-07-06T03:49:50;22.7;100.0
22674;DHT22;11504;43.334;21.918;2022-07-06T03:54:27;22.7;100.0
22674;DHT22;11504;43.334;21.918;2022-07-06T03:59:03;22.7;100.0
22674;DHT22;11504;43.334;21.918;2022-07-06T04:03:40;22.7;100.0
22674;DHT22;11504;43.334;21.918;2022-07-06T04:08:16;22.7;100.0
22674;DHT22;11504;43.334;21.918;2022-07-06T04:12:53;22.7;100.0
22674;DHT22;11504;43.334;21.918;2022-07-06T04:17:29;22.7;100.0
22674;DHT22;11504;43.334;21.918;2022-07-06T04:22:05;22.7;100.0
22674;DHT22;11504;43.334;21.918;2022-07-06T04:26:42;22.7;100.0
22674;DHT22;11504;43.334;21.918;2022-07-06T04:31:19;22.9;100.0
22674;DHT22;11504;43.334;21.918;2022-07-06T04:35:57;22.9;100.0
22674;DHT22;11504;43.334;21.918;2022-07-06T04:40:34;23.1;100.0
22674;DHT22;11504;43.334;21.918;2022-07-06T04:45:10;23.1;100.0
22674;DHT22;11504;43.334;21.918;2022-07-06T04:49:48;23.2;100.0
22674;DHT22;11504;43.334;21.918;2022-07-06T04:54:24;23.2;100.0
22674;DHT22;11504;43.334;21.918;2022-07-06T04:59:01;23.2;100.0
22674;DHT22;11504;43.334;21.918;2022-07-06T05:03:38;23.2;100.0
22674;DHT22;11504;43.334;21.918;2022-07-06T05:08:14;23.2;100.0
22674;DHT22;11504;43.334;21.918;2022-07-06T05:12:51;23.2;100.0
22674;DHT22;11504;43.334;21.918;2022-07-06T05:17:27;23.2;100.0
22674;DHT22;11504;43.334;21.918;2022-07-06T05:22:03;23.3;100.0
22674;DHT22;11504;43.334;21.918;2022-07-06T05:26:39;23.3;100.0
22674;DHT22;11504;43.334;21.918;2022-07-06T05:31:15;23.6;100.0
22674;DHT22;11504;43.334;21.918;2022-07-06T05:35:52;23.6;100.0
22674;DHT22;11504;43.334;21.918;2022-07-06T05:40:28;23.8;100.0
22674;DHT22;11504;43.334;21.918;2022-07-06T05:45:06;23.8;100.0
22674;DHT22;11504;43.334;21.918;2022-07-06T05:49:45;24.0;100.0
22674;DHT22;11504;43.334;21.918;2022-07-06T05:54:21;24.0;100.0
22674;DHT22;11504;43.334;21.918;2022-07-06T05:58:58;24.2;100.0
22674;DHT22;11504;43.334;21.918;2022-07-06T06:03:34;24.2;100.0
22674;DHT22;11504;43.334;21.918;2022-07-06T06:08:11;24.2;100.0
22674;DHT22;11504;43.334;21.918;2022-07-06T06:12:48;24.2;100.0
22674;DHT22;11504;43.334;21.918;2022-07-06T06:17:27;24.2;100.0
22674;DHT22;11504;43.334;21.918;2022-07-06T06:22:04;24.1;100.0
22674;DHT22;11504;43.334;21.918;2022-07-06T06:26:41;24.1;100.0
22674;DHT22;11504;43.334;21.918;2022-07-06T06:31:18;24.5;100.0
22674;DHT22;11504;43.334;21.918;2022-07-06T06:35:54;24.5;100.0
22674;DHT22;11504;43.334;21.918;2022-07-06T06:40:30;24.8;100.0
22674;DHT22;11504;43.334;21.918;2022-07-06T06:45:08;24.8;100.0
22674;DHT22;11504;43.334;21.918;2022-07-06T06:49:45;26.2;100.0
22674;DHT22;11504;43.334;21.918;2022-07-06T06:54:22;26.2;100.0
22674;DHT22;11504;43.334;21.918;2022-07-06T06:58:59;27.5;100.0
22674;DHT22;11504;43.334;21.918;2022-07-06T07:03:35;27.5;100.0
22674;DHT22;11504;43.334;21.918;2022-07-06T07:08:12;27.3;100.0
22674;DHT22;11504;43.334;21.918;2022-07-06T07:12:49;27.3;100.0
22674;DHT22;11504;43.334;21.918;2022-07-06T07:17:26;27.3;100.0
22674;DHT22;11504;43.334;21.918;2022-07-06T07:22:03;27.1;100.0
22674;DHT22;11504;43.334;21.918;2022-07-06T07:26:40;27.1;100.0
22674;DHT22;11504;43.334;21.918;2022-07-06T07:31:17;26.4;100.0
22674;DHT22;11504;43.334;21.918;2022-07-06T07:35:53;26.4;100.0
22674;DHT22;11504;43.334;21.918;2022-07-06T07:40:30;25.7;100.0
22674;DHT22;11504;43.334;21.918;2022-07-06T07:45:07;25.7;100.0
22674;DHT22;11504;43.334;21.918;2022-07-06T07:49:46;25.5;100.0
22674;DHT22;11504;43.334;21.918;2022-07-06T07:54:23;25.5;100.0
22674;DHT22;11504;43.334;21.918;2022-07-06T07:58:59;25.3;100.0
22674;DHT22;11504;43.334;21.918;2022-07-06T08:03:36;25.3;100.0
22674;DHT22;11504;43.334;21.918;2022-07-06T08:08:12;25.3;100.0
22674;DHT22;11504;43.334;21.918;2022-07-06T08:12:49;25.5;100.0
22674;DHT22;11504;43.334;21.918;2022-07-06T08:17:25;25.5;100.0
22674;DHT22;11504;43.334;21.918;2022-07-06T08:22:02;25.6;100.0
22674;DHT22;11504;43.334;21.918;2022-07-06T08:26:39;25.6;100.0
22674;DHT22;11504;43.334;21.918;2022-07-06T08:31:16;25.7;100.0
22674;DHT22;11504;43.334;21.918;2022-07-06T08:35:53;25.7;100.0
22674;DHT22;11504;43.334;21.918;2022-07-06T08:40:33;25.8;100.0
22674;DHT22;11504;43.334;21.918;2022-07-06T08:45:18;25.8;100.0
22674;DHT22;11504;43.334;21.918;2022-07-06T08:49:57;25.8;100.0
22674;DHT22;11504;43.334;21.918;2022-07-06T08:54:34;25.8;100.0
22674;DHT22;11504;43.334;21.918;2022-07-06T08:59:14;25.8;100.0
22674;DHT22;11504;43.334;21.918;2022-07-06T09:03:54;25.8;100.0
22674;DHT22;11504;43.334;21.918;2022-07-06T09:08:37;26.7;100.0
22674;DHT22;11504;43.334;21.918;2022-07-06T09:13:14;26.7;100.0
22674;DHT22;11504;43.334;21.918;2022-07-06T09:17:55;26.7;100.0
22674;DHT22;11504;43.334;21.918;2022-07-06T09:22:32;27.6;100.0
22674;DHT22;11504;43.334;21.918;2022-07-06T09:27:15;27.6;100.0
22674;DHT22;11504;43.334;21.918;2022-07-06T09:31:56;27.5;100.0
22674;DHT22;11504;43.334;21.918;2022-07-06T09:36:41;27.5;100.0
22674;DHT22;11504;43.334;21.918;2022-07-06T09:41:31;27.4;100.0
22674;DHT22;11504;43.334;21.918;2022-07-06T09:46:11;27.4;100.0
22674;DHT22;11504;43.334;21.918;2022-07-06T09:50:53;28.2;100.0
22674;DHT22;11504;43.334;21.918;2022-07-06T09:55:38;28.2;100.0
22674;DHT22;11504;43.334;21.918;2022-07-06T10:00:25;29.1;100.0
22674;DHT22;11504;43.334;21.918;2022-07-06T10:05:02;29.1;100.0
22674;DHT22;11504;43.334;21.918;2022-07-06T10:09:41;29.5;100.0
22674;DHT22;11504;43.334;21.918;2022-07-06T10:14:25;29.5;100.0
22674;DHT22;11504;43.334;21.918;2022-07-06T10:19:09;29.9;100.0
22674;DHT22;11504;43.334;21.918;2022-07-06T10:23:46;29.9;100.0
22674;DHT22;11504;43.334;21.918;2022-07-06T10:28:27;30.1;100.0
22674;DHT22;11504;43.334;21.918;2022-07-06T10:33:05;30.1;100.0
22674;DHT22;11504;43.334;21.918;2022-07-06T10:37:43;30.1;100.0
22674;DHT22;11504;43.334;21.918;2022-07-06T10:42:40;30.3;100.0
22674;DHT22;11504;43.334;21.918;2022-07-06T10:47:26;30.3;100.0
22674;DHT22;11504;43.334;21.918;2022-07-06T10:52:04;30.0;100.0
22674;DHT22;11504;43.334;21.918;2022-07-06T10:56:42;30.0;100.0
22674;DHT22;11504;43.334;21.918;2022-07-06T11:01:27;29.8;100.0
22674;DHT22;11504;43.334;21.918;2022-07-06T11:06:07;29.8;100.0
22674;DHT22;11504;43.334;21.918;2022-07-06T11:10:52;29.8;100.0
22674;DHT22;11504;43.334;21.918;2022-07-06T11:16:00;29.8;100.0
22674;DHT22;11504;43.334;21.918;2022-07-06T11:20:39;29.7;100.0
22674;DHT22;11504;43.334;21.918;2022-07-06T11:25:15;29.7;100.0
22674;DHT22;11504;43.334;21.918;2022-07-06T11:29:54;29.5;100.0
22674;DHT22;11504;43.334;21.918;2022-07-06T11:34:33;29.5;100.0
22674;DHT22;11504;43.334;21.918;2022-07-06T11:39:19;29.3;100.0
22674;DHT22;11504;43.334;21.918;2022-07-06T11:43:56;29.3;100.0
22674;DHT22;11504;43.334;21.918;2022-07-06T11:48:33;29.5;100.0
22674;DHT22;11504;43.334;21.918;2022-07-06T11:53:10;29.5;100.0
22674;DHT22;11504;43.334;21.918;2022-07-06T11:57:50;29.5;100.0
22674;DHT22;11504;43.334;21.918;2022-07-06T12:02:28;29.7;100.0
22674;DHT22;11504;43.334;21.918;2022-07-06T12:07:06;29.7;100.0
22674;DHT22;11504;43.334;21.918;2022-07-06T12:11:50;30.0;100.0
22674;DHT22;11504;43.334;21.918;2022-07-06T12:16:30;30.0;100.0
22674;DHT22;11504;43.334;21.918;2022-07-06T12:21:13;30.2;100.0
22674;DHT22;11504;43.334;21.918;2022-07-06T12:25:56;30.2;100.0
22674;DHT22;11504;43.334;21.918;2022-07-06T12:30:33;30.4;100.0
22674;DHT22;11504;43.334;21.918;2022-07-06T12:35:22;30.4;100.0
22674;DHT22;11504;43.334;21.918;2022-07-06T12:39:59;30.6;100.0
22674;DHT22;11504;43.334;21.918;2022-07-06T12:44:50;30.6;100.0
22674;DHT22;11504;43.334;21.918;2022-07-06T12:49:29;30.4;100.0
22674;DHT22;11504;43.334;21.918;2022-07-06T12:54:12;30.4;100.0
22674;DHT22;11504;43.334;21.918;2022-07-06T12:58:56;30.3;100.0
22674;DHT22;11504;43.334;21.918;2022-07-06T13:03:38;30.3;100.0
22674;DHT22;11504;43.334;21.918;2022-07-06T13:08:16;30.3;100.0
22674;DHT22;11504;43.334;21.918;2022-07-06T13:12:52;30.2;100.0
22674;DHT22;11504;43.334;21.918;2022-07-06T13:17:29;30.2;100.0
22674;DHT22;11504;43.334;21.918;2022-07-06T13:22:05;30.2;100.0
22674;DHT22;11504;43.334;21.918;2022-07-06T13:26:42;30.2;100.0
22674;DHT22;11504;43.334;21.918;2022-07-06T13:31:18;30.2;100.0
22674;DHT22;11504;43.334;21.918;2022-07-06T13:35:54;30.2;100.0
22674;DHT22;11504;43.334;21.918;2022-07-06T13:49:45;30.2;100.0
22674;DHT22;11504;43.334;21.918;2022-07-06T13:54:21;30.2;100.0
22674;DHT22;11504;43.334;21.918;2022-07-06T13:58:58;30.2;100.0
22674;DHT22;11504;43.334;21.918;2022-07-06T14:03:35;30.2;100.0
22674;DHT22;11504;43.334;21.918;2022-07-06T14:08:11;30.2;100.0
22674;DHT22;11504;43.334;21.918;2022-07-06T14:12:48;30.2;100.0
22674;DHT22;11504;43.334;21.918;2022-07-06T14:17:26;30.2;100.0
22674;DHT22;11504;43.334;21.918;2022-07-06T14:22:04;30.1;100.0
22674;DHT22;11504;43.334;21.918;2022-07-06T14:26:40;30.1;100.0
22674;DHT22;11504;43.334;21.918;2022-07-06T14:31:17;30.0;100.0
22674;DHT22;11504;43.334;21.918;2022-07-06T14:35:54;30.0;100.0
22674;DHT22;11504;43.334;21.918;2022-07-06T14:40:33;30.0;100.0
22674;DHT22;11504;43.334;21.918;2022-07-06T14:45:12;30.0;100.0
22674;DHT22;11504;43.334;21.918;2022-07-06T14:49:49;29.8;100.0
22674;DHT22;11504;43.334;21.918;2022-07-06T14:54:26;29.8;100.0
22674;DHT22;11504;43.334;21.918;2022-07-06T14:59:03;29.7;100.0
22674;DHT22;11504;43.334;21.918;2022-07-06T15:03:39;29.7;100.0
22674;DHT22;11504;43.334;21.918;2022-07-06T15:08:16;29.7;100.0
22674;DHT22;11504;43.334;21.918;2022-07-06T15:12:53;29.6;100.0
22674;DHT22;11504;43.334;21.918;2022-07-06T15:17:30;29.6;100.0
22674;DHT22;11504;43.334;21.918;2022-07-06T15:22:07;29.5;100.0
22674;DHT22;11504;43.334;21.918;2022-07-06T15:26:43;29.5;100.0
22674;DHT22;11504;43.334;21.918;2022-07-06T15:31:20;29.3;100.0
22674;DHT22;11504;43.334;21.918;2022-07-06T15:35:56;29.3;100.0
22674;DHT22;11504;43.334;21.918;2022-07-06T15:40:33;29.1;100.0
22674;DHT22;11504;43.334;21.918;2022-07-06T15:45:10;29.1;100.0
22674;DHT22;11504;43.334;21.918;2022-07-06T15:49:47;29.0;100.0
22674;DHT22;11504;43.334;21.918;2022-07-06T15:54:25;29.0;100.0
22674;DHT22;11504;43.334;21.918;2022-07-06T15:59:02;29.0;100.0
22674;DHT22;11504;43.334;21.918;2022-07-06T16:03:39;29.0;100.0
22674;DHT22;11504;43.334;21.918;2022-07-06T16:08:15;29.0;100.0
22674;DHT22;11504;43.334;21.918;2022-07-06T16:12:51;28.8;100.0
22674;DHT22;11504;43.334;21.918;2022-07-06T16:17:27;28.8;100.0
22674;DHT22;11504;43.334;21.918;2022-07-06T16:22:04;28.6;100.0
22674;DHT22;11504;43.334;21.918;2022-07-06T16:26:40;28.6;100.0
22674;DHT22;11504;43.334;21.918;2022-07-06T16:31:17;28.4;100.0
22674;DHT22;11504;43.334;21.918;2022-07-06T16:35:55;28.4;100.0
22674;DHT22;11504;43.334;21.918;2022-07-06T16:40:31;28.3;100.0
22674;DHT22;11504;43.334;21.918;2022-07-06T16:45:09;28.3;100.0
22674;DHT22;11504;43.334;21.918;2022-07-06T16:49:46;28.2;100.0
22674;DHT22;11504;43.334;21.918;2022-07-06T16:54:22;28.2;100.0
22674;DHT22;11504;43.334;21.918;2022-07-06T16:58:59;28.2;100.0
22674;DHT22;11504;43.334;21.918;2022-07-06T17:03:36;28.2;100.0
22674;DHT22;11504;43.334;21.918;2022-07-06T17:08:12;28.2;100.0
22674;DHT22;11504;43.334;21.918;2022-07-06T17:12:49;28.0;100.0
22674;DHT22;11504;43.334;21.918;2022-07-06T17:17:27;28.0;100.0
22674;DHT22;11504;43.334;21.918;2022-07-06T17:22:04;27.9;100.0
22674;DHT22;11504;43.334;21.918;2022-07-06T17:26:40;27.9;100.0
22674;DHT22;11504;43.334;21.918;2022-07-06T17:31:17;27.8;100.0
22674;DHT22;11504;43.334;21.918;2022-07-06T17:35:54;27.8;100.0
22674;DHT22;11504;43.334;21.918;2022-07-06T17:40:32;27.6;100.0
22674;DHT22;11504;43.334;21.918;2022-07-06T17:45:09;27.6;100.0
22674;DHT22;11504;43.334;21.918;2022-07-06T17:49:47;27.4;100.0
22674;DHT22;11504;43.334;21.918;2022-07-06T17:54:24;27.4;100.0
22674;DHT22;11504;43.334;21.918;2022-07-06T17:59:01;27.3;100.0
22674;DHT22;11504;43.334;21.918;2022-07-06T18:03:38;27.3;100.0
22674;DHT22;11504;43.334;21.918;2022-07-06T18:08:16;27.3;100.0
22674;DHT22;11504;43.334;21.918;2022-07-06T18:12:52;27.2;100.0
22674;DHT22;11504;43.334;21.918;2022-07-06T18:17:29;27.2;100.0
22674;DHT22;11504;43.334;21.918;2022-07-06T18:22:05;27.0;100.0
22674;DHT22;11504;43.334;21.918;2022-07-06T18:26:44;27.0;100.0
22674;DHT22;11504;43.334;21.918;2022-07-06T18:31:21;26.8;100.0
22674;DHT22;11504;43.334;21.918;2022-07-06T18:35:58;26.8;100.0
22674;DHT22;11504;43.334;21.918;2022-07-06T18:40:35;26.6;100.0
22674;DHT22;11504;43.334;21.918;2022-07-06T18:45:12;26.6;100.0
22674;DHT22;11504;43.334;21.918;2022-07-06T18:49:48;26.4;100.0
22674;DHT22;11504;43.334;21.918;2022-07-06T18:54:24;26.4;100.0
22674;DHT22;11504;43.334;21.918;2022-07-06T18:59:02;26.2;100.0
22674;DHT22;11504;43.334;21.918;2022-07-06T19:03:38;26.2;100.0
22674;DHT22;11504;43.334;21.918;2022-07-06T19:08:14;26.2;100.0
22674;DHT22;11504;43.334;21.918;2022-07-06T19:12:51;26.0;100.0
22674;DHT22;11504;43.334;21.918;2022-07-06T19:17:27;26.0;100.0
22674;DHT22;11504;43.334;21.918;2022-07-06T19:22:04;25.9;100.0
22674;DHT22;11504;43.334;21.918;2022-07-06T19:26:41;25.9;100.0
22674;DHT22;11504;43.334;21.918;2022-07-06T19:31:17;25.8;100.0
22674;DHT22;11504;43.334;21.918;2022-07-06T19:35:54;25.8;100.0
22674;DHT22;11504;43.334;21.918;2022-07-06T19:40:31;25.6;100.0
22674;DHT22;11504;43.334;21.918;2022-07-06T19:45:09;25.6;100.0
22674;DHT22;11504;43.334;21.918;2022-07-06T19:49:46;25.5;100.0
22674;DHT22;11504;43.334;21.918;2022-07-06T19:54:22;25.5;100.0
22674;DHT22;11504;43.334;21.918;2022-07-06T19:59:00;25.3;100.0
22674;DHT22;11504;43.334;21.918;2022-07-06T20:03:37;25.3;100.0
22674;DHT22;11504;43.334;21.918;2022-07-06T20:08:14;25.3;100.0
22674;DHT22;11504;43.334;21.918;2022-07-06T20:12:51;25.2;100.0
22674;DHT22;11504;43.334;21.918;2022-07-06T20:17:28;25.2;100.0
22674;DHT22;11504;43.334;21.918;2022-07-06T20:22:05;25.0;100.0
22674;DHT22;11504;43.334;21.918;2022-07-06T20:26:42;25.0;100.0
22674;DHT22;11504;43.334;21.918;2022-07-06T20:31:18;25.0;100.0
22674;DHT22;11504;43.334;21.918;2022-07-06T20:35:55;25.0;100.0
22674;DHT22;11504;43.334;21.918;2022-07-06T20:40:33;25.0;100.0
22674;DHT22;11504;43.334;21.918;2022-07-06T20:45:10;25.0;100.0
22674;DHT22;11504;43.334;21.918;2022-07-06T20:49:47;25.0;100.0
22674;DHT22;11504;43.334;21.918;2022-07-06T20:54:23;25.0;100.0
22674;DHT22;11504;43.334;21.918;2022-07-06T20:59:00;24.9;100.0
22674;DHT22;11504;43.334;21.918;2022-07-06T21:03:36;24.9;100.0
22674;DHT22;11504;43.334;21.918;2022-07-06T21:08:13;24.9;100.0
22674;DHT22;11504;43.334;21.918;2022-07-06T21:12:49;24.8;100.0
22674;DHT22;11504;43.334;21.918;2022-07-06T21:17:26;24.8;100.0
22674;DHT22;11504;43.334;21.918;2022-07-06T21:22:03;24.7;100.0
22674;DHT22;11504;43.334;21.918;2022-07-06T21:26:40;24.7;100.0
22674;DHT22;11504;43.334;21.918;2022-07-06T21:31:17;24.5;100.0
22674;DHT22;11504;43.334;21.918;2022-07-06T21:35:53;24.5;100.0
22674;DHT22;11504;43.334;21.918;2022-07-06T21:40:30;24.4;100.0
22674;DHT22;11504;43.334;21.918;2022-07-06T21:45:08;24.4;100.0
22674;DHT22;11504;43.334;21.918;2022-07-06T21:49:45;24.2;100.0
22674;DHT22;11504;43.334;21.918;2022-07-06T21:54:21;24.2;100.0
22674;DHT22;11504;43.334;21.918;2022-07-06T21:58:57;24.1;100.0
22674;DHT22;11504;43.334;21.918;2022-07-06T22:03:34;24.1;100.0
22674;DHT22;11504;43.334;21.918;2022-07-06T22:08:11;24.1;100.0
22674;DHT22;11504;43.334;21.918;2022-07-06T22:12:47;24.0;100.0
22674;DHT22;11504;43.334;21.918;2022-07-06T22:17:23;24.0;100.0
22674;DHT22;11504;43.334;21.918;2022-07-06T22:22:00;23.8;100.0
22674;DHT22;11504;43.334;21.918;2022-07-06T22:26:36;23.8;100.0
22674;DHT22;11504;43.334;21.918;2022-07-06T22:31:14;23.6;100.0
22674;DHT22;11504;43.334;21.918;2022-07-06T22:35:50;23.6;100.0
22674;DHT22;11504;43.334;21.918;2022-07-06T22:40:27;23.5;100.0
22674;DHT22;11504;43.334;21.918;2022-07-06T22:45:06;23.5;100.0
22674;DHT22;11504;43.334;21.918;2022-07-06T22:49:43;23.4;100.0
22674;DHT22;11504;43.334;21.918;2022-07-06T22:54:20;23.4;100.0
22674;DHT22;11504;43.334;21.918;2022-07-06T22:58:56;23.4;100.0
22674;DHT22;11504;43.334;21.918;2022-07-06T23:03:34;23.4;100.0
22674;DHT22;11504;43.334;21.918;2022-07-06T23:08:11;23.4;100.0
22674;DHT22;11504;43.334;21.918;2022-07-06T23:12:48;23.4;100.0
22674;DHT22;11504;43.334;21.918;2022-07-06T23:17:25;23.4;100.0
22674;DHT22;11504;43.334;21.918;2022-07-06T23:22:03;23.3;100.0
22674;DHT22;11504;43.334;21.918;2022-07-06T23:26:41;23.3;100.0
22674;DHT22;11504;43.334;21.918;2022-07-06T23:31:17;23.2;100.0
22674;DHT22;11504;43.334;21.918;2022-07-06T23:35:53;23.2;100.0
22674;DHT22;11504;43.334;21.918;2022-07-06T23:40:30;23.2;100.0
22674;DHT22;11504;43.334;21.918;2022-07-06T23:45:08;23.2;100.0
22674;DHT22;11504;43.334;21.918;2022-07-06T23:49:45;23.1;100.0
22674;DHT22;11504;43.334;21.918;2022-07-06T23:54:21;23.1;100.0
22674;DHT22;11504;43.334;21.918;2022-07-06T23:58:58;23.1;100.0
